sensor_id;sensor_type;location;lat;lon;timestamp;temperature;humidity
15630;DHT22;7914;50.842;0.166;2023-01-09T00:01:22;7.90;99.90
15630;DHT22;7914;50.842;0.166;2023-01-09T00:03:48;7.90;99.90
15630;DHT22;7914;50.842;0.166;2023-01-09T00:06:14;7.80;99.90
15630;DHT22;7914;50.842;0.166;2023-01-09T00:08:40;7.90;99.90
15630;DHT22;7914;50.842;0.166;2023-01-09T00:11:06;7.90;99.90
15630;DHT22;7914;50.842;0.166;2023-01-09T00:13:32;7.90;99.90
15630;DHT22;7914;50.842;0.166;2023-01-09T00:15:57;7.90;99.90
15630;DHT22;7914;50.842;0.166;2023-01-09T00:18:24;7.90;99.90
15630;DHT22;7914;50.842;0.166;2023-01-09T00:20:50;7.90;99.90
15630;DHT22;7914;50.842;0.166;2023-01-09T00:23:15;7.90;99.90
15630;DHT22;7914;50.842;0.166;2023-01-09T00:25:41;7.80;99.90
15630;DHT22;7914;50.842;0.166;2023-01-09T00:28:07;7.80;99.90
15630;DHT22;7914;50.842;0.166;2023-01-09T00:30:32;7.70;99.90
15630;DHT22;7914;50.842;0.166;2023-01-09T00:32:58;7.60;99.90
15630;DHT22;7914;50.842;0.166;2023-01-09T00:35:26;7.60;99.90
15630;DHT22;7914;50.842;0.166;2023-01-09T00:37:52;7.50;99.90
15630;DHT22;7914;50.842;0.166;2023-01-09T00:40:18;7.60;99.90
15630;DHT22;7914;50.842;0.166;2023-01-09T00:42:46;7.50;99.90
15630;DHT22;7914;50.842;0.166;2023-01-09T00:45:19;7.50;99.90
15630;DHT22;7914;50.842;0.166;2023-01-09T00:47:50;7.50;99.90
15630;DHT22;7914;50.842;0.166;2023-01-09T00:50:24;7.50;99.90
15630;DHT22;7914;50.842;0.166;2023-01-09T00:52:52;7.40;99.90
15630;DHT22;7914;50.842;0.166;2023-01-09T00:55:19;7.50;99.90
15630;DHT22;7914;50.842;0.166;2023-01-09T00:57:45;7.40;99.90
15630;DHT22;7914;50.842;0.166;2023-01-09T01:00:11;7.50;99.90
15630;DHT22;7914;50.842;0.166;2023-01-09T01:02:37;7.30;99.90
15630;DHT22;7914;50.842;0.166;2023-01-09T01:05:03;7.30;99.90
15630;DHT22;7914;50.842;0.166;2023-01-09T01:07:47;7.30;99.90
15630;DHT22;7914;50.842;0.166;2023-01-09T01:10:20;7.30;99.90
15630;DHT22;7914;50.842;0.166;2023-01-09T01:12:46;7.30;99.90
15630;DHT22;7914;50.842;0.166;2023-01-09T01:15:13;7.30;99.90
15630;DHT22;7914;50.842;0.166;2023-01-09T01:17:39;7.40;99.90
15630;DHT22;7914;50.842;0.166;2023-01-09T01:20:08;7.30;99.90
15630;DHT22;7914;50.842;0.166;2023-01-09T01:22:34;7.20;99.90
15630;DHT22;7914;50.842;0.166;2023-01-09T01:25:00;7.20;99.90
15630;DHT22;7914;50.842;0.166;2023-01-09T01:27:27;7.10;99.90
15630;DHT22;7914;50.842;0.166;2023-01-09T01:29:52;7.20;99.90
15630;DHT22;7914;50.842;0.166;2023-01-09T01:32:18;7.20;99.90
15630;DHT22;7914;50.842;0.166;2023-01-09T01:34:44;7.20;99.90
15630;DHT22;7914;50.842;0.166;2023-01-09T01:37:09;7.20;99.90
15630;DHT22;7914;50.842;0.166;2023-01-09T01:39:35;7.70;99.90
15630;DHT22;7914;50.842;0.166;2023-01-09T01:42:03;7.20;99.90
15630;DHT22;7914;50.842;0.166;2023-01-09T01:45:02;7.20;99.90
15630;DHT22;7914;50.842;0.166;2023-01-09T01:47:54;7.20;99.90
15630;DHT22;7914;50.842;0.166;2023-01-09T01:56:24;7.00;99.90
15630;DHT22;7914;50.842;0.166;2023-01-09T01:59:25;7.00;99.90
15630;DHT22;7914;50.842;0.166;2023-01-09T02:01:48;6.90;99.90
15630;DHT22;7914;50.842;0.166;2023-01-09T02:04:15;6.80;99.90
15630;DHT22;7914;50.842;0.166;2023-01-09T02:06:41;6.80;99.90
15630;DHT22;7914;50.842;0.166;2023-01-09T02:09:08;6.70;99.90
15630;DHT22;7914;50.842;0.166;2023-01-09T02:11:47;6.70;99.90
15630;DHT22;7914;50.842;0.166;2023-01-09T02:14:14;6.60;99.90
15630;DHT22;7914;50.842;0.166;2023-01-09T02:41:58;6.30;99.90
15630;DHT22;7914;50.842;0.166;2023-01-09T02:44:28;6.30;99.90
15630;DHT22;7914;50.842;0.166;2023-01-09T02:49:45;6.30;99.90
15630;DHT22;7914;50.842;0.166;2023-01-09T02:54:53;6.30;99.90
15630;DHT22;7914;50.842;0.166;2023-01-09T03:06:03;6.40;99.90
15630;DHT22;7914;50.842;0.166;2023-01-09T03:08:35;6.40;99.90
15630;DHT22;7914;50.842;0.166;2023-01-09T03:11:04;6.40;99.90
15630;DHT22;7914;50.842;0.166;2023-01-09T03:13:42;6.40;99.90
15630;DHT22;7914;50.842;0.166;2023-01-09T03:16:11;6.40;99.90
15630;DHT22;7914;50.842;0.166;2023-01-09T03:18:39;6.50;99.90
15630;DHT22;7914;50.842;0.166;2023-01-09T03:21:07;6.40;99.90
15630;DHT22;7914;50.842;0.166;2023-01-09T03:23:56;6.40;99.90
15630;DHT22;7914;50.842;0.166;2023-01-09T03:26:22;6.40;99.90
15630;DHT22;7914;50.842;0.166;2023-01-09T03:28:49;6.30;99.90
15630;DHT22;7914;50.842;0.166;2023-01-09T03:31:15;6.40;99.90
15630;DHT22;7914;50.842;0.166;2023-01-09T03:33:41;6.40;99.90
15630;DHT22;7914;50.842;0.166;2023-01-09T03:36:08;6.40;99.90
15630;DHT22;7914;50.842;0.166;2023-01-09T03:38:33;6.40;99.90
15630;DHT22;7914;50.842;0.166;2023-01-09T03:40:59;6.40;99.90
15630;DHT22;7914;50.842;0.166;2023-01-09T03:43:25;6.50;99.90
15630;DHT22;7914;50.842;0.166;2023-01-09T03:45:51;6.50;99.90
15630;DHT22;7914;50.842;0.166;2023-01-09T03:48:16;6.50;99.90
15630;DHT22;7914;50.842;0.166;2023-01-09T03:50:42;6.50;99.90
15630;DHT22;7914;50.842;0.166;2023-01-09T03:53:11;6.50;99.90
15630;DHT22;7914;50.842;0.166;2023-01-09T03:55:38;6.50;99.90
15630;DHT22;7914;50.842;0.166;2023-01-09T03:58:04;6.50;99.90
15630;DHT22;7914;50.842;0.166;2023-01-09T04:00:30;6.50;99.90
15630;DHT22;7914;50.842;0.166;2023-01-09T04:02:55;6.50;99.90
15630;DHT22;7914;50.842;0.166;2023-01-09T04:05:21;6.50;99.90
15630;DHT22;7914;50.842;0.166;2023-01-09T04:07:47;6.50;99.90
15630;DHT22;7914;50.842;0.166;2023-01-09T04:10:13;6.50;99.90
15630;DHT22;7914;50.842;0.166;2023-01-09T04:12:38;6.50;99.90
15630;DHT22;7914;50.842;0.166;2023-01-09T04:15:04;6.40;99.90
15630;DHT22;7914;50.842;0.166;2023-01-09T04:17:30;6.40;99.90
15630;DHT22;7914;50.842;0.166;2023-01-09T04:19:56;6.40;99.90
15630;DHT22;7914;50.842;0.166;2023-01-09T04:22:23;6.40;99.90
15630;DHT22;7914;50.842;0.166;2023-01-09T04:24:49;6.40;99.90
15630;DHT22;7914;50.842;0.166;2023-01-09T04:27:15;6.40;99.90
15630;DHT22;7914;50.842;0.166;2023-01-09T04:29:40;6.50;99.90
15630;DHT22;7914;50.842;0.166;2023-01-09T04:32:06;6.50;99.90
15630;DHT22;7914;50.842;0.166;2023-01-09T04:34:32;6.50;99.90
15630;DHT22;7914;50.842;0.166;2023-01-09T04:36:57;6.50;99.90
15630;DHT22;7914;50.842;0.166;2023-01-09T04:39:23;6.50;99.90
15630;DHT22;7914;50.842;0.166;2023-01-09T04:41:49;6.50;99.90
15630;DHT22;7914;50.842;0.166;2023-01-09T04:44:19;6.50;99.90
15630;DHT22;7914;50.842;0.166;2023-01-09T04:46:46;6.50;99.90
15630;DHT22;7914;50.842;0.166;2023-01-09T04:49:12;6.50;99.90
15630;DHT22;7914;50.842;0.166;2023-01-09T04:51:37;6.50;99.90
15630;DHT22;7914;50.842;0.166;2023-01-09T04:54:03;6.50;99.90
15630;DHT22;7914;50.842;0.166;2023-01-09T04:56:29;6.60;99.90
15630;DHT22;7914;50.842;0.166;2023-01-09T04:58:55;6.60;99.90
15630;DHT22;7914;50.842;0.166;2023-01-09T05:01:21;6.70;99.90
15630;DHT22;7914;50.842;0.166;2023-01-09T05:03:47;6.60;99.90
15630;DHT22;7914;50.842;0.166;2023-01-09T05:06:12;6.60;99.90
15630;DHT22;7914;50.842;0.166;2023-01-09T05:08:38;6.70;99.90
15630;DHT22;7914;50.842;0.166;2023-01-09T05:11:04;7.10;99.90
15630;DHT22;7914;50.842;0.166;2023-01-09T05:13:29;6.50;99.90
15630;DHT22;7914;50.842;0.166;2023-01-09T05:15:55;6.50;99.90
15630;DHT22;7914;50.842;0.166;2023-01-09T05:18:21;6.50;99.90
15630;DHT22;7914;50.842;0.166;2023-01-09T05:20:47;6.50;99.90
15630;DHT22;7914;50.842;0.166;2023-01-09T05:23:12;6.50;99.90
15630;DHT22;7914;50.842;0.166;2023-01-09T05:25:38;6.60;99.90
15630;DHT22;7914;50.842;0.166;2023-01-09T05:28:04;6.70;99.90
15630;DHT22;7914;50.842;0.166;2023-01-09T05:30:29;6.60;99.90
15630;DHT22;7914;50.842;0.166;2023-01-09T05:32:55;6.70;99.90
15630;DHT22;7914;50.842;0.166;2023-01-09T05:35:21;6.60;99.90
15630;DHT22;7914;50.842;0.166;2023-01-09T05:37:47;6.70;99.90
15630;DHT22;7914;50.842;0.166;2023-01-09T05:40:12;6.70;99.90
15630;DHT22;7914;50.842;0.166;2023-01-09T05:42:38;6.70;99.90
15630;DHT22;7914;50.842;0.166;2023-01-09T05:45:05;6.80;99.90
15630;DHT22;7914;50.842;0.166;2023-01-09T05:47:31;6.70;99.90
15630;DHT22;7914;50.842;0.166;2023-01-09T05:49:56;6.70;99.90
15630;DHT22;7914;50.842;0.166;2023-01-09T05:52:23;6.60;99.90
15630;DHT22;7914;50.842;0.166;2023-01-09T05:54:49;6.70;99.90
15630;DHT22;7914;50.842;0.166;2023-01-09T05:57:15;6.60;99.90
15630;DHT22;7914;50.842;0.166;2023-01-09T05:59:41;6.60;99.90
15630;DHT22;7914;50.842;0.166;2023-01-09T06:02:07;6.60;99.90
15630;DHT22;7914;50.842;0.166;2023-01-09T06:04:32;6.60;99.90
15630;DHT22;7914;50.842;0.166;2023-01-09T06:06:58;6.50;99.90
15630;DHT22;7914;50.842;0.166;2023-01-09T06:09:24;6.50;99.90
15630;DHT22;7914;50.842;0.166;2023-01-09T06:11:50;6.50;99.90
15630;DHT22;7914;50.842;0.166;2023-01-09T06:14:15;6.50;99.90
15630;DHT22;7914;50.842;0.166;2023-01-09T06:16:41;6.50;99.90
15630;DHT22;7914;50.842;0.166;2023-01-09T06:19:07;6.50;99.90
15630;DHT22;7914;50.842;0.166;2023-01-09T06:21:33;6.50;99.90
15630;DHT22;7914;50.842;0.166;2023-01-09T06:23:59;6.50;99.90
15630;DHT22;7914;50.842;0.166;2023-01-09T06:26:25;6.50;99.90
15630;DHT22;7914;50.842;0.166;2023-01-09T06:28:51;6.50;99.90
15630;DHT22;7914;50.842;0.166;2023-01-09T06:31:23;6.50;99.90
15630;DHT22;7914;50.842;0.166;2023-01-09T06:33:50;6.50;99.90
15630;DHT22;7914;50.842;0.166;2023-01-09T06:36:15;6.50;99.90
15630;DHT22;7914;50.842;0.166;2023-01-09T06:38:41;6.60;99.90
15630;DHT22;7914;50.842;0.166;2023-01-09T06:41:07;6.60;99.90
15630;DHT22;7914;50.842;0.166;2023-01-09T06:43:33;6.50;99.90
15630;DHT22;7914;50.842;0.166;2023-01-09T06:45:58;6.60;99.90
15630;DHT22;7914;50.842;0.166;2023-01-09T06:48:24;6.50;99.90
15630;DHT22;7914;50.842;0.166;2023-01-09T06:50:51;6.60;99.90
15630;DHT22;7914;50.842;0.166;2023-01-09T06:53:17;6.50;99.90
15630;DHT22;7914;50.842;0.166;2023-01-09T06:55:43;6.50;99.90
15630;DHT22;7914;50.842;0.166;2023-01-09T06:58:09;6.50;99.90
15630;DHT22;7914;50.842;0.166;2023-01-09T07:00:34;6.50;99.90
15630;DHT22;7914;50.842;0.166;2023-01-09T07:03:00;6.50;99.90
15630;DHT22;7914;50.842;0.166;2023-01-09T07:05:26;6.50;99.90
15630;DHT22;7914;50.842;0.166;2023-01-09T07:07:52;6.50;99.90
15630;DHT22;7914;50.842;0.166;2023-01-09T07:10:18;6.50;99.90
15630;DHT22;7914;50.842;0.166;2023-01-09T07:12:44;6.50;99.90
15630;DHT22;7914;50.842;0.166;2023-01-09T07:15:10;6.50;99.90
15630;DHT22;7914;50.842;0.166;2023-01-09T07:17:35;6.50;99.90
15630;DHT22;7914;50.842;0.166;2023-01-09T07:20:01;6.50;99.90
15630;DHT22;7914;50.842;0.166;2023-01-09T07:22:27;6.50;99.90
15630;DHT22;7914;50.842;0.166;2023-01-09T07:24:53;6.60;99.90
15630;DHT22;7914;50.842;0.166;2023-01-09T07:27:19;6.60;99.90
15630;DHT22;7914;50.842;0.166;2023-01-09T07:29:45;6.50;99.90
15630;DHT22;7914;50.842;0.166;2023-01-09T07:32:10;6.40;99.90
15630;DHT22;7914;50.842;0.166;2023-01-09T07:34:36;6.40;99.90
15630;DHT22;7914;50.842;0.166;2023-01-09T07:37:02;6.30;99.90
15630;DHT22;7914;50.842;0.166;2023-01-09T07:39:27;6.20;99.90
15630;DHT22;7914;50.842;0.166;2023-01-09T07:41:53;6.20;99.90
15630;DHT22;7914;50.842;0.166;2023-01-09T07:44:19;6.20;99.90
15630;DHT22;7914;50.842;0.166;2023-01-09T07:46:44;6.20;99.90
15630;DHT22;7914;50.842;0.166;2023-01-09T07:49:10;6.20;99.90
15630;DHT22;7914;50.842;0.166;2023-01-09T07:51:36;6.10;99.90
15630;DHT22;7914;50.842;0.166;2023-01-09T07:54:03;6.10;99.90
15630;DHT22;7914;50.842;0.166;2023-01-09T07:56:29;6.10;99.90
15630;DHT22;7914;50.842;0.166;2023-01-09T07:58:55;6.10;99.90
15630;DHT22;7914;50.842;0.166;2023-01-09T08:01:20;6.00;99.90
15630;DHT22;7914;50.842;0.166;2023-01-09T08:03:46;6.00;99.90
15630;DHT22;7914;50.842;0.166;2023-01-09T08:06:12;6.00;99.90
15630;DHT22;7914;50.842;0.166;2023-01-09T08:08:37;6.00;99.90
15630;DHT22;7914;50.842;0.166;2023-01-09T08:11:03;5.90;99.90
15630;DHT22;7914;50.842;0.166;2023-01-09T08:13:29;6.00;99.90
15630;DHT22;7914;50.842;0.166;2023-01-09T08:15:54;6.00;99.90
15630;DHT22;7914;50.842;0.166;2023-01-09T08:18:20;6.00;99.90
15630;DHT22;7914;50.842;0.166;2023-01-09T08:20:49;5.90;99.90
15630;DHT22;7914;50.842;0.166;2023-01-09T08:23:14;6.00;99.90
15630;DHT22;7914;50.842;0.166;2023-01-09T08:25:40;6.00;99.90
15630;DHT22;7914;50.842;0.166;2023-01-09T08:28:06;6.00;99.90
15630;DHT22;7914;50.842;0.166;2023-01-09T08:30:33;6.00;99.90
15630;DHT22;7914;50.842;0.166;2023-01-09T08:32:59;5.90;99.90
15630;DHT22;7914;50.842;0.166;2023-01-09T08:35:25;6.00;99.90
15630;DHT22;7914;50.842;0.166;2023-01-09T08:37:51;6.00;99.90
15630;DHT22;7914;50.842;0.166;2023-01-09T08:40:17;6.00;99.90
15630;DHT22;7914;50.842;0.166;2023-01-09T08:42:43;6.00;99.90
15630;DHT22;7914;50.842;0.166;2023-01-09T08:45:28;6.10;99.90
15630;DHT22;7914;50.842;0.166;2023-01-09T08:48:12;6.10;99.90
15630;DHT22;7914;50.842;0.166;2023-01-09T08:50:38;6.20;99.90
15630;DHT22;7914;50.842;0.166;2023-01-09T08:53:04;6.30;99.90
15630;DHT22;7914;50.842;0.166;2023-01-09T08:55:30;6.40;99.90
15630;DHT22;7914;50.842;0.166;2023-01-09T08:57:55;6.40;99.90
15630;DHT22;7914;50.842;0.166;2023-01-09T09:00:22;6.50;99.90
15630;DHT22;7914;50.842;0.166;2023-01-09T09:02:56;6.60;99.90
15630;DHT22;7914;50.842;0.166;2023-01-09T09:05:24;6.70;99.90
15630;DHT22;7914;50.842;0.166;2023-01-09T09:07:51;6.90;99.90
15630;DHT22;7914;50.842;0.166;2023-01-09T09:10:26;6.90;99.90
15630;DHT22;7914;50.842;0.166;2023-01-09T09:12:54;7.10;99.90
15630;DHT22;7914;50.842;0.166;2023-01-09T09:15:21;7.10;99.90
15630;DHT22;7914;50.842;0.166;2023-01-09T09:17:52;7.30;99.90
15630;DHT22;7914;50.842;0.166;2023-01-09T09:20:20;7.30;99.90
15630;DHT22;7914;50.842;0.166;2023-01-09T09:22:46;7.30;99.90
15630;DHT22;7914;50.842;0.166;2023-01-09T09:25:13;7.30;99.90
15630;DHT22;7914;50.842;0.166;2023-01-09T09:27:39;7.40;99.90
15630;DHT22;7914;50.842;0.166;2023-01-09T09:30:06;7.50;99.90
15630;DHT22;7914;50.842;0.166;2023-01-09T09:32:32;7.60;99.90
15630;DHT22;7914;50.842;0.166;2023-01-09T09:34:58;7.60;99.90
15630;DHT22;7914;50.842;0.166;2023-01-09T09:37:23;7.70;85.20
15630;DHT22;7914;50.842;0.166;2023-01-09T09:39:49;7.90;94.50
15630;DHT22;7914;50.842;0.166;2023-01-09T09:42:46;7.90;42.50
15630;DHT22;7914;50.842;0.166;2023-01-09T09:48:55;8.10;40.40
15630;DHT22;7914;50.842;0.166;2023-01-09T09:54:18;8.10;1.00
15630;DHT22;7914;50.842;0.166;2023-01-09T09:56:55;8.00;27.40
15630;DHT22;7914;50.842;0.166;2023-01-09T09:59:24;8.00;49.00
15630;DHT22;7914;50.842;0.166;2023-01-09T10:04:50;8.10;42.30
15630;DHT22;7914;50.842;0.166;2023-01-09T10:07:26;8.20;62.50
15630;DHT22;7914;50.842;0.166;2023-01-09T10:09:59;8.40;91.20
15630;DHT22;7914;50.842;0.166;2023-01-09T10:14:59;8.50;1.00
15630;DHT22;7914;50.842;0.166;2023-01-09T10:25:36;8.80;1.00
15630;DHT22;7914;50.842;0.166;2023-01-09T10:30:46;8.50;1.00
15630;DHT22;7914;50.842;0.166;2023-01-09T10:36:53;8.50;1.00
15630;DHT22;7914;50.842;0.166;2023-01-09T10:38:55;8.50;1.00
15630;DHT22;7914;50.842;0.166;2023-01-09T10:41:29;8.70;1.00
15630;DHT22;7914;50.842;0.166;2023-01-09T10:43:57;8.80;37.40
15630;DHT22;7914;50.842;0.166;2023-01-09T10:46:29;8.90;1.00
15630;DHT22;7914;50.842;0.166;2023-01-09T10:49:01;9.00;1.00
15630;DHT22;7914;50.842;0.166;2023-01-09T10:54:23;9.20;1.00
15630;DHT22;7914;50.842;0.166;2023-01-09T10:57:09;9.30;1.00
15630;DHT22;7914;50.842;0.166;2023-01-09T10:59:38;9.30;1.00
15630;DHT22;7914;50.842;0.166;2023-01-09T11:02:03;9.20;1.00
15630;DHT22;7914;50.842;0.166;2023-01-09T11:04:31;9.10;1.00
15630;DHT22;7914;50.842;0.166;2023-01-09T11:07:01;9.00;1.00
15630;DHT22;7914;50.842;0.166;2023-01-09T11:12:26;8.90;1.00
15630;DHT22;7914;50.842;0.166;2023-01-09T11:14:52;8.80;1.00
15630;DHT22;7914;50.842;0.166;2023-01-09T11:17:26;8.80;1.00
15630;DHT22;7914;50.842;0.166;2023-01-09T11:20:12;8.80;1.00
15630;DHT22;7914;50.842;0.166;2023-01-09T11:22:49;8.80;1.00
15630;DHT22;7914;50.842;0.166;2023-01-09T11:25:17;8.80;1.00
15630;DHT22;7914;50.842;0.166;2023-01-09T11:27:54;8.80;1.00
15630;DHT22;7914;50.842;0.166;2023-01-09T11:30:28;8.80;1.00
15630;DHT22;7914;50.842;0.166;2023-01-09T11:32:55;8.70;1.00
15630;DHT22;7914;50.842;0.166;2023-01-09T11:35:28;8.70;1.00
15630;DHT22;7914;50.842;0.166;2023-01-09T11:38:16;8.80;33.20
15630;DHT22;7914;50.842;0.166;2023-01-09T11:40:50;9.00;1.00
15630;DHT22;7914;50.842;0.166;2023-01-09T11:43:30;8.90;1.00
15630;DHT22;7914;50.842;0.166;2023-01-09T11:46:02;8.80;1.00
15630;DHT22;7914;50.842;0.166;2023-01-09T11:51:14;8.80;1.00
15630;DHT22;7914;50.842;0.166;2023-01-09T11:53:51;8.60;1.00
15630;DHT22;7914;50.842;0.166;2023-01-09T11:56:18;8.70;1.00
15630;DHT22;7914;50.842;0.166;2023-01-09T11:58:43;8.80;1.00
15630;DHT22;7914;50.842;0.166;2023-01-09T12:04:18;8.90;1.00
15630;DHT22;7914;50.842;0.166;2023-01-09T12:23:42;9.20;1.00
15630;DHT22;7914;50.842;0.166;2023-01-09T12:26:18;9.30;1.00
15630;DHT22;7914;50.842;0.166;2023-01-09T12:34:30;9.30;1.00
15630;DHT22;7914;50.842;0.166;2023-01-09T12:44:52;9.40;1.00
15630;DHT22;7914;50.842;0.166;2023-01-09T12:52:55;9.60;1.00
15630;DHT22;7914;50.842;0.166;2023-01-09T12:55:26;9.60;1.00
15630;DHT22;7914;50.842;0.166;2023-01-09T12:57:56;9.60;1.00
15630;DHT22;7914;50.842;0.166;2023-01-09T13:00:41;9.60;1.00
15630;DHT22;7914;50.842;0.166;2023-01-09T13:03:16;9.60;1.00
15630;DHT22;7914;50.842;0.166;2023-01-09T13:05:45;9.50;1.00
15630;DHT22;7914;50.842;0.166;2023-01-09T13:10:53;9.30;1.00
15630;DHT22;7914;50.842;0.166;2023-01-09T13:13:31;9.10;1.00
15630;DHT22;7914;50.842;0.166;2023-01-09T13:16:11;9.10;99.90
15630;DHT22;7914;50.842;0.166;2023-01-09T13:18:51;9.00;1.00
15630;DHT22;7914;50.842;0.166;2023-01-09T13:21:20;9.00;1.00
15630;DHT22;7914;50.842;0.166;2023-01-09T13:23:58;9.00;1.00
15630;DHT22;7914;50.842;0.166;2023-01-09T13:26:49;9.00;1.00
15630;DHT22;7914;50.842;0.166;2023-01-09T13:29:20;9.10;99.90
15630;DHT22;7914;50.842;0.166;2023-01-09T13:34:27;9.00;99.90
15630;DHT22;7914;50.842;0.166;2023-01-09T13:36:55;9.00;99.90
15630;DHT22;7914;50.842;0.166;2023-01-09T13:39:23;8.90;99.90
15630;DHT22;7914;50.842;0.166;2023-01-09T13:42:16;8.90;99.90
15630;DHT22;7914;50.842;0.166;2023-01-09T13:45:19;9.00;99.90
15630;DHT22;7914;50.842;0.166;2023-01-09T13:47:45;9.10;99.90
15630;DHT22;7914;50.842;0.166;2023-01-09T13:50:24;9.20;99.90
15630;DHT22;7914;50.842;0.166;2023-01-09T13:52:52;9.40;99.90
15630;DHT22;7914;50.842;0.166;2023-01-09T13:57:44;9.50;99.90
15630;DHT22;7914;50.842;0.166;2023-01-09T14:03:18;9.40;99.90
15630;DHT22;7914;50.842;0.166;2023-01-09T14:08:18;9.20;99.90
15630;DHT22;7914;50.842;0.166;2023-01-09T14:13:27;8.80;99.90
15630;DHT22;7914;50.842;0.166;2023-01-09T14:18:36;8.70;99.90
15630;DHT22;7914;50.842;0.166;2023-01-09T14:21:08;8.80;99.90
15630;DHT22;7914;50.842;0.166;2023-01-09T14:23:59;8.80;1.00
15630;DHT22;7914;50.842;0.166;2023-01-09T14:26:54;8.80;99.90
15630;DHT22;7914;50.842;0.166;2023-01-09T14:29:40;8.80;99.90
15630;DHT22;7914;50.842;0.166;2023-01-09T14:34:56;8.90;99.90
15630;DHT22;7914;50.842;0.166;2023-01-09T14:37:23;8.80;1.00
15630;DHT22;7914;50.842;0.166;2023-01-09T14:39:50;8.80;31.40
15630;DHT22;7914;50.842;0.166;2023-01-09T14:42:20;8.70;1.00
15630;DHT22;7914;50.842;0.166;2023-01-09T14:45:02;8.60;1.00
15630;DHT22;7914;50.842;0.166;2023-01-09T14:47:46;8.60;1.00
15630;DHT22;7914;50.842;0.166;2023-01-09T14:58:24;8.50;51.30
15630;DHT22;7914;50.842;0.166;2023-01-09T15:03:19;8.30;99.90
15630;DHT22;7914;50.842;0.166;2023-01-09T15:05:46;8.20;99.90
15630;DHT22;7914;50.842;0.166;2023-01-09T15:08:21;8.10;22.80
15630;DHT22;7914;50.842;0.166;2023-01-09T15:10:49;8.00;29.70
15630;DHT22;7914;50.842;0.166;2023-01-09T15:13:36;8.00;1.00
15630;DHT22;7914;50.842;0.166;2023-01-09T15:16:06;7.90;99.90
15630;DHT22;7914;50.842;0.166;2023-01-09T15:18:40;7.80;88.50
15630;DHT22;7914;50.842;0.166;2023-01-09T15:21:16;7.80;1.00
15630;DHT22;7914;50.842;0.166;2023-01-09T15:23:43;7.80;99.90
15630;DHT22;7914;50.842;0.166;2023-01-09T15:26:29;7.80;99.90
15630;DHT22;7914;50.842;0.166;2023-01-09T15:29:13;7.80;99.90
15630;DHT22;7914;50.842;0.166;2023-01-09T15:34:26;7.80;99.90
15630;DHT22;7914;50.842;0.166;2023-01-09T15:36:52;7.70;99.90
15630;DHT22;7914;50.842;0.166;2023-01-09T15:39:22;7.70;95.90
15630;DHT22;7914;50.842;0.166;2023-01-09T15:41:49;7.70;99.90
15630;DHT22;7914;50.842;0.166;2023-01-09T15:44:33;7.60;99.90
15630;DHT22;7914;50.842;0.166;2023-01-09T15:47:03;7.60;99.90
15630;DHT22;7914;50.842;0.166;2023-01-09T15:49:31;7.60;99.90
15630;DHT22;7914;50.842;0.166;2023-01-09T15:51:57;7.60;99.90
15630;DHT22;7914;50.842;0.166;2023-01-09T15:54:28;7.50;99.90
15630;DHT22;7914;50.842;0.166;2023-01-09T15:57:26;7.50;99.90
15630;DHT22;7914;50.842;0.166;2023-01-09T15:59:53;7.40;99.90
15630;DHT22;7914;50.842;0.166;2023-01-09T16:02:20;7.20;99.90
15630;DHT22;7914;50.842;0.166;2023-01-09T16:05:06;7.30;99.90
15630;DHT22;7914;50.842;0.166;2023-01-09T16:07:33;7.20;99.90
15630;DHT22;7914;50.842;0.166;2023-01-09T16:09:59;7.20;99.90
15630;DHT22;7914;50.842;0.166;2023-01-09T16:12:26;7.10;99.90
15630;DHT22;7914;50.842;0.166;2023-01-09T16:15:00;7.10;99.90
15630;DHT22;7914;50.842;0.166;2023-01-09T16:17:26;7.00;99.90
15630;DHT22;7914;50.842;0.166;2023-01-09T16:19:56;6.90;99.90
15630;DHT22;7914;50.842;0.166;2023-01-09T16:24:51;6.90;99.90
15630;DHT22;7914;50.842;0.166;2023-01-09T16:27:23;6.90;99.90
15630;DHT22;7914;50.842;0.166;2023-01-09T16:29:51;6.80;99.90
15630;DHT22;7914;50.842;0.166;2023-01-09T16:32:24;6.80;1.00
15630;DHT22;7914;50.842;0.166;2023-01-09T16:34:54;6.80;1.00
15630;DHT22;7914;50.842;0.166;2023-01-09T16:37:24;6.70;1.00
15630;DHT22;7914;50.842;0.166;2023-01-09T16:42:58;6.70;1.00
15630;DHT22;7914;50.842;0.166;2023-01-09T16:45:35;6.70;1.00
15630;DHT22;7914;50.842;0.166;2023-01-09T16:48:10;6.70;1.00
15630;DHT22;7914;50.842;0.166;2023-01-09T16:50:36;6.70;1.00
15630;DHT22;7914;50.842;0.166;2023-01-09T16:53:16;6.60;1.00
15630;DHT22;7914;50.842;0.166;2023-01-09T16:55:43;6.60;1.00
15630;DHT22;7914;50.842;0.166;2023-01-09T16:58:18;6.60;1.00
15630;DHT22;7914;50.842;0.166;2023-01-09T17:00:48;6.70;1.00
15630;DHT22;7914;50.842;0.166;2023-01-09T17:03:14;6.60;1.00
15630;DHT22;7914;50.842;0.166;2023-01-09T17:05:40;6.70;1.00
15630;DHT22;7914;50.842;0.166;2023-01-09T17:08:23;6.60;1.00
15630;DHT22;7914;50.842;0.166;2023-01-09T17:10:50;6.70;1.00
15630;DHT22;7914;50.842;0.166;2023-01-09T17:13:16;6.70;1.00
15630;DHT22;7914;50.842;0.166;2023-01-09T17:15:42;6.70;1.00
15630;DHT22;7914;50.842;0.166;2023-01-09T17:18:23;6.70;1.00
15630;DHT22;7914;50.842;0.166;2023-01-09T17:20:54;6.70;1.00
15630;DHT22;7914;50.842;0.166;2023-01-09T17:23:21;6.70;1.00
15630;DHT22;7914;50.842;0.166;2023-01-09T17:25:48;6.60;1.00
15630;DHT22;7914;50.842;0.166;2023-01-09T17:28:34;6.60;1.00
15630;DHT22;7914;50.842;0.166;2023-01-09T17:31:09;6.60;1.00
15630;DHT22;7914;50.842;0.166;2023-01-09T17:33:37;6.70;1.00
15630;DHT22;7914;50.842;0.166;2023-01-09T17:36:28;6.60;1.00
15630;DHT22;7914;50.842;0.166;2023-01-09T17:38:51;6.70;1.00
15630;DHT22;7914;50.842;0.166;2023-01-09T17:41:20;6.70;1.00
15630;DHT22;7914;50.842;0.166;2023-01-09T17:43:47;6.70;1.00
15630;DHT22;7914;50.842;0.166;2023-01-09T17:46:15;6.60;1.00
15630;DHT22;7914;50.842;0.166;2023-01-09T17:48:41;6.60;1.00
15630;DHT22;7914;50.842;0.166;2023-01-09T17:51:08;6.50;1.00
15630;DHT22;7914;50.842;0.166;2023-01-09T17:53:34;6.50;1.00
15630;DHT22;7914;50.842;0.166;2023-01-09T17:55:59;6.50;1.00
15630;DHT22;7914;50.842;0.166;2023-01-09T17:58:27;6.40;1.00
15630;DHT22;7914;50.842;0.166;2023-01-09T18:00:55;6.40;1.00
15630;DHT22;7914;50.842;0.166;2023-01-09T18:03:21;6.40;1.00
15630;DHT22;7914;50.842;0.166;2023-01-09T18:05:49;6.30;1.00
15630;DHT22;7914;50.842;0.166;2023-01-09T18:08:14;6.20;1.00
15630;DHT22;7914;50.842;0.166;2023-01-09T18:10:40;6.20;1.00
15630;DHT22;7914;50.842;0.166;2023-01-09T18:13:08;6.20;1.00
15630;DHT22;7914;50.842;0.166;2023-01-09T18:15:35;6.10;1.00
15630;DHT22;7914;50.842;0.166;2023-01-09T18:18:01;6.10;1.00
15630;DHT22;7914;50.842;0.166;2023-01-09T18:20:27;6.10;1.00
15630;DHT22;7914;50.842;0.166;2023-01-09T18:22:52;6.10;1.00
15630;DHT22;7914;50.842;0.166;2023-01-09T18:25:18;6.00;1.00
15630;DHT22;7914;50.842;0.166;2023-01-09T18:27:44;6.00;1.00
15630;DHT22;7914;50.842;0.166;2023-01-09T18:30:10;5.90;1.00
15630;DHT22;7914;50.842;0.166;2023-01-09T18:32:36;5.90;1.00
15630;DHT22;7914;50.842;0.166;2023-01-09T18:35:01;5.90;1.00
15630;DHT22;7914;50.842;0.166;2023-01-09T18:37:27;5.90;1.00
15630;DHT22;7914;50.842;0.166;2023-01-09T18:39:53;5.80;1.00
15630;DHT22;7914;50.842;0.166;2023-01-09T18:42:18;5.80;1.00
15630;DHT22;7914;50.842;0.166;2023-01-09T18:44:44;5.90;1.00
15630;DHT22;7914;50.842;0.166;2023-01-09T18:47:10;5.90;1.00
15630;DHT22;7914;50.842;0.166;2023-01-09T18:49:36;5.90;1.00
15630;DHT22;7914;50.842;0.166;2023-01-09T18:52:02;5.90;1.00
15630;DHT22;7914;50.842;0.166;2023-01-09T18:54:27;6.00;1.00
15630;DHT22;7914;50.842;0.166;2023-01-09T18:56:53;5.90;1.00
15630;DHT22;7914;50.842;0.166;2023-01-09T18:59:19;5.90;1.00